sensor_id;sensor_type;location;lat;lon;timestamp;noise_LAeq;noise_LA_min;noise_LA_max;noise_LA01;noise_LA95
80864;Laerm;70936;51.680;5.974;2024-03-02T00:00:23;29.28;28.51;32.26;;
80864;Laerm;70936;51.680;5.974;2024-03-02T00:04:23;29.45;28.47;35.2;;
80864;Laerm;70936;51.680;5.974;2024-03-02T00:08:24;29.5;28.47;37.19;;
80864;Laerm;70936;51.680;5.974;2024-03-02T00:12:23;29.22;28.4;30.36;;
80864;Laerm;70936;51.680;5.974;2024-03-02T00:16:23;29.25;28.44;34.02;;
80864;Laerm;70936;51.680;5.974;2024-03-02T00:20:23;29.21;28.41;32.56;;
80864;Laerm;70936;51.680;5.974;2024-03-02T00:24:25;29.18;28.47;29.96;;
80864;Laerm;70936;51.680;5.974;2024-03-02T00:28:25;29.18;28.45;36.29;;
80864;Laerm;70936;51.680;5.974;2024-03-02T00:36:24;29.21;28.39;34.13;;
80864;Laerm;70936;51.680;5.974;2024-03-02T00:40:25;29.2;28.47;31.66;;
80864;Laerm;70936;51.680;5.974;2024-03-02T00:44:23;29.18;28.44;30.09;;
80864;Laerm;70936;51.680;5.974;2024-03-02T00:48:23;29.16;28.43;30.17;;
80864;Laerm;70936;51.680;5.974;2024-03-02T00:52:24;29.17;28.25;29.97;;
80864;Laerm;70936;51.680;5.974;2024-03-02T00:56:23;29.29;28.43;34.39;;
80864;Laerm;70936;51.680;5.974;2024-03-02T01:00:24;29.19;28.36;29.95;;
80864;Laerm;70936;51.680;5.974;2024-03-02T01:04:23;29.2;28.31;30.53;;
80864;Laerm;70936;51.680;5.974;2024-03-02T01:08:23;29.21;28.51;30.12;;
80864;Laerm;70936;51.680;5.974;2024-03-02T01:12:23;29.28;28.48;34.79;;
80864;Laerm;70936;51.680;5.974;2024-03-02T01:16:23;29.29;28.3;35.49;;
80864;Laerm;70936;51.680;5.974;2024-03-02T01:20:23;29.14;28.39;31.66;;
80864;Laerm;70936;51.680;5.974;2024-03-02T01:24:23;29.31;28.45;36.7;;
80864;Laerm;70936;51.680;5.974;2024-03-02T01:28:23;29.17;28.45;29.87;;
80864;Laerm;70936;51.680;5.974;2024-03-02T01:32:23;29.2;28.42;30.07;;
80864;Laerm;70936;51.680;5.974;2024-03-02T01:36:25;29.2;28.5;29.91;;
80864;Laerm;70936;51.680;5.974;2024-03-02T01:40:23;29.15;28.39;29.96;;
80864;Laerm;70936;51.680;5.974;2024-03-02T01:44:23;29.49;28.47;37.55;;
80864;Laerm;70936;51.680;5.974;2024-03-02T01:48:23;29.4;28.44;35.91;;
80864;Laerm;70936;51.680;5.974;2024-03-02T01:52:23;29.18;28.46;30.17;;
80864;Laerm;70936;51.680;5.974;2024-03-02T01:56:23;29.15;28.45;29.86;;
80864;Laerm;70936;51.680;5.974;2024-03-02T02:00:23;29.16;28.28;34.71;;
80864;Laerm;70936;51.680;5.974;2024-03-02T02:04:23;29.16;28.26;29.94;;
80864;Laerm;70936;51.680;5.974;2024-03-02T02:08:23;29.15;28.43;29.89;;
80864;Laerm;70936;51.680;5.974;2024-03-02T02:12:24;29.15;28.35;29.88;;
80864;Laerm;70936;51.680;5.974;2024-03-02T02:16:23;29.15;28.36;30.67;;
80864;Laerm;70936;51.680;5.974;2024-03-02T02:20:23;29.14;28.34;29.83;;
80864;Laerm;70936;51.680;5.974;2024-03-02T02:24:24;29.15;28.29;29.87;;
80864;Laerm;70936;51.680;5.974;2024-03-02T02:28:23;29.2;28.42;32.5;;
80864;Laerm;70936;51.680;5.974;2024-03-02T02:32:23;29.24;28.33;34.2;;
80864;Laerm;70936;51.680;5.974;2024-03-02T02:36:25;29.14;28.4;29.82;;
80864;Laerm;70936;51.680;5.974;2024-03-02T02:40:23;29.14;28.44;30;;
80864;Laerm;70936;51.680;5.974;2024-03-02T02:44:23;29.15;28.45;29.85;;
80864;Laerm;70936;51.680;5.974;2024-03-02T02:48:24;29.15;28.4;29.85;;
80864;Laerm;70936;51.680;5.974;2024-03-02T02:52:23;29.29;28.44;32.68;;
80864;Laerm;70936;51.680;5.974;2024-03-02T02:56:23;29.23;28.3;34.62;;
80864;Laerm;70936;51.680;5.974;2024-03-02T03:00:24;29.15;28.35;29.83;;
80864;Laerm;70936;51.680;5.974;2024-03-02T03:04:23;29.14;28.39;29.91;;
80864;Laerm;70936;51.680;5.974;2024-03-02T03:08:23;29.35;28.48;35.49;;
80864;Laerm;70936;51.680;5.974;2024-03-02T03:12:23;29.16;28.37;31.05;;
80864;Laerm;70936;51.680;5.974;2024-03-02T03:16:23;29.32;28.48;38.6;;
80864;Laerm;70936;51.680;5.974;2024-03-02T03:20:23;29.22;28.41;32.89;;
80864;Laerm;70936;51.680;5.974;2024-03-02T03:24:24;29.16;28.4;29.93;;
80864;Laerm;70936;51.680;5.974;2024-03-02T03:28:23;29.14;28.16;29.93;;
80864;Laerm;70936;51.680;5.974;2024-03-02T03:32:23;29.17;28.44;30.04;;
80864;Laerm;70936;51.680;5.974;2024-03-02T03:36:23;29.15;28.3;29.81;;
80864;Laerm;70936;51.680;5.974;2024-03-02T03:40:23;29.3;28.44;36.36;;
80864;Laerm;70936;51.680;5.974;2024-03-02T03:44:23;29.18;28.53;29.89;;
80864;Laerm;70936;51.680;5.974;2024-03-02T03:48:24;29.19;28.36;29.84;;
80864;Laerm;70936;51.680;5.974;2024-03-02T03:52:23;29.2;28.5;30.11;;
80864;Laerm;70936;51.680;5.974;2024-03-02T03:56:23;29.21;28.43;31.5;;
80864;Laerm;70936;51.680;5.974;2024-03-02T04:00:23;29.19;28.39;31.72;;
80864;Laerm;70936;51.680;5.974;2024-03-02T04:04:23;29.25;28.37;32.84;;
80864;Laerm;70936;51.680;5.974;2024-03-02T04:08:23;29.23;28.35;34.45;;
80864;Laerm;70936;51.680;5.974;2024-03-02T04:12:24;29.21;28.56;29.96;;
80864;Laerm;70936;51.680;5.974;2024-03-02T04:16:23;29.7;28.53;37.1;;
80864;Laerm;70936;51.680;5.974;2024-03-02T04:20:23;29.27;28.41;32.76;;
80864;Laerm;70936;51.680;5.974;2024-03-02T04:24:23;29.47;28.44;36.83;;
80864;Laerm;70936;51.680;5.974;2024-03-02T04:28:23;29.76;28.36;39.81;;
80864;Laerm;70936;51.680;5.974;2024-03-02T04:32:23;29.24;28.5;31.7;;
80864;Laerm;70936;51.680;5.974;2024-03-02T04:36:24;29.93;28.53;38.94;;
80864;Laerm;70936;51.680;5.974;2024-03-02T04:40:23;29.54;28.46;35.56;;
80864;Laerm;70936;51.680;5.974;2024-03-02T04:44:23;29.5;28.55;36.79;;
80864;Laerm;70936;51.680;5.974;2024-03-02T04:48:23;29.49;28.55;34.7;;
80864;Laerm;70936;51.680;5.974;2024-03-02T04:52:23;29.22;28.43;30.04;;
80864;Laerm;70936;51.680;5.974;2024-03-02T04:56:23;29.74;28.6;40.97;;
80864;Laerm;70936;51.680;5.974;2024-03-02T05:00:23;29.27;28.48;32.49;;
80864;Laerm;70936;51.680;5.974;2024-03-02T05:04:23;29.35;28.13;43.49;;
80864;Laerm;70936;51.680;5.974;2024-03-02T05:08:23;30.23;28.63;38.95;;
80864;Laerm;70936;51.680;5.974;2024-03-02T05:12:23;29.73;28.29;44.82;;
80864;Laerm;70936;51.680;5.974;2024-03-02T05:16:23;30.16;28.37;39.8;;
80864;Laerm;70936;51.680;5.974;2024-03-02T05:20:23;29.97;28.49;43.39;;
80864;Laerm;70936;51.680;5.974;2024-03-02T05:24:23;29.27;28.53;34.08;;
80864;Laerm;70936;51.680;5.974;2024-03-02T05:28:23;29.33;28.41;43.56;;
80864;Laerm;70936;51.680;5.974;2024-03-02T05:32:23;29.34;28.47;34.72;;
80864;Laerm;70936;51.680;5.974;2024-03-02T05:36:24;29.23;28.33;33.03;;
80864;Laerm;70936;51.680;5.974;2024-03-02T05:40:23;29.74;28.46;40.51;;
80864;Laerm;70936;51.680;5.974;2024-03-02T05:44:23;29.58;28.49;35.4;;
80864;Laerm;70936;51.680;5.974;2024-03-02T05:48:23;29.64;28.59;39.92;;
80864;Laerm;70936;51.680;5.974;2024-03-02T05:52:23;30.64;28.53;41.17;;
80864;Laerm;70936;51.680;5.974;2024-03-02T05:56:23;29.59;28.55;34.47;;
80864;Laerm;70936;51.680;5.974;2024-03-02T06:00:24;29.93;28.49;40.55;;
80864;Laerm;70936;51.680;5.974;2024-03-02T06:04:23;29.95;28.49;43.52;;
80864;Laerm;70936;51.680;5.974;2024-03-02T06:08:23;29.38;28.32;39.45;;
80864;Laerm;70936;51.680;5.974;2024-03-02T06:12:25;29.73;28.54;39.66;;
80864;Laerm;70936;51.680;5.974;2024-03-02T06:16:23;29.39;28.51;36.46;;
80864;Laerm;70936;51.680;5.974;2024-03-02T06:20:23;29.33;28.52;34.03;;
80864;Laerm;70936;51.680;5.974;2024-03-02T06:24:23;30.26;28.61;39.81;;
80864;Laerm;70936;51.680;5.974;2024-03-02T06:28:23;29.92;28.64;38.11;;
80864;Laerm;70936;51.680;5.974;2024-03-02T06:32:23;29.76;28.68;39.32;;
80864;Laerm;70936;51.680;5.974;2024-03-02T06:36:23;29.75;28.6;42.97;;
80864;Laerm;70936;51.680;5.974;2024-03-02T06:40:23;29.48;28.61;35.4;;
80864;Laerm;70936;51.680;5.974;2024-03-02T06:44:23;30.38;28.56;41.79;;
80864;Laerm;70936;51.680;5.974;2024-03-02T06:48:23;29.94;28.64;40.4;;
80864;Laerm;70936;51.680;5.974;2024-03-02T06:52:23;30.08;28.65;37.64;;
80864;Laerm;70936;51.680;5.974;2024-03-02T06:56:23;31.02;28.57;43.71;;
80864;Laerm;70936;51.680;5.974;2024-03-02T07:00:23;29.55;28.29;34.16;;
80864;Laerm;70936;51.680;5.974;2024-03-02T07:04:23;30.17;28.54;39.43;;
80864;Laerm;70936;51.680;5.974;2024-03-02T07:08:23;30.64;28.64;42.74;;
80864;Laerm;70936;51.680;5.974;2024-03-02T07:12:24;30.14;28.52;39.86;;
80864;Laerm;70936;51.680;5.974;2024-03-02T07:16:23;30.03;28.47;36.6;;
80864;Laerm;70936;51.680;5.974;2024-03-02T07:20:23;30.32;28.65;41.78;;
80864;Laerm;70936;51.680;5.974;2024-03-02T07:24:23;29.59;28.56;41.32;;
80864;Laerm;70936;51.680;5.974;2024-03-02T07:28:23;29.92;28.49;35.94;;
80864;Laerm;70936;51.680;5.974;2024-03-02T07:32:23;30.44;28.59;41.17;;
80864;Laerm;70936;51.680;5.974;2024-03-02T07:36:23;30.63;28.39;42.52;;
80864;Laerm;70936;51.680;5.974;2024-03-02T07:40:23;32.17;28.67;49.37;;
80864;Laerm;70936;51.680;5.974;2024-03-02T07:44:23;30.74;28.64;50.27;;
80864;Laerm;70936;51.680;5.974;2024-03-02T07:48:23;32;28.58;53.31;;
80864;Laerm;70936;51.680;5.974;2024-03-02T07:52:23;33.62;28.65;54.26;;
80864;Laerm;70936;51.680;5.974;2024-03-02T07:56:23;31.9;28.64;48.4;;
80864;Laerm;70936;51.680;5.974;2024-03-02T08:00:23;31.08;28.58;45.97;;
80864;Laerm;70936;51.680;5.974;2024-03-02T08:04:23;30.82;28.42;42.76;;
80864;Laerm;70936;51.680;5.974;2024-03-02T08:08:23;30.17;28.53;36.11;;
80864;Laerm;70936;51.680;5.974;2024-03-02T08:12:23;30.92;28.68;50.79;;
80864;Laerm;70936;51.680;5.974;2024-03-02T08:16:23;32.06;28.58;53.7;;
80864;Laerm;70936;51.680;5.974;2024-03-02T08:20:23;31.59;28.52;56.24;;
80864;Laerm;70936;51.680;5.974;2024-03-02T08:24:23;35.27;28.64;56.06;;
80864;Laerm;70936;51.680;5.974;2024-03-02T08:28:23;31.77;28.71;47.47;;
80864;Laerm;70936;51.680;5.974;2024-03-02T08:32:23;37.67;28.89;68.08;;
80864;Laerm;70936;51.680;5.974;2024-03-02T08:36:23;33.92;28.57;57.59;;
80864;Laerm;70936;51.680;5.974;2024-03-02T08:40:23;31.89;28.61;49.13;;
80864;Laerm;70936;51.680;5.974;2024-03-02T08:44:23;33.73;28.77;57.63;;
80864;Laerm;70936;51.680;5.974;2024-03-02T08:48:23;37.43;28.75;63.57;;
80864;Laerm;70936;51.680;5.974;2024-03-02T08:52:23;37.96;28.78;69.48;;
80864;Laerm;70936;51.680;5.974;2024-03-02T08:56:23;31.38;28.67;43.35;;
80864;Laerm;70936;51.680;5.974;2024-03-02T09:00:23;31.77;28.69;45.91;;
80864;Laerm;70936;51.680;5.974;2024-03-02T09:04:23;31.11;28.65;51.23;;
80864;Laerm;70936;51.680;5.974;2024-03-02T09:08:23;30.79;28.54;46.92;;
80864;Laerm;70936;51.680;5.974;2024-03-02T09:12:23;30.53;28.59;44.35;;
80864;Laerm;70936;51.680;5.974;2024-03-02T09:16:23;34.01;28.64;51.88;;
80864;Laerm;70936;51.680;5.974;2024-03-02T09:20:23;32.15;28.7;51.55;;
80864;Laerm;70936;51.680;5.974;2024-03-02T09:57:07;52.52;42.65;71.47;;
80864;Laerm;70936;51.680;5.974;2024-03-02T11:35:50;71.66;44.54;94.38;;
80864;Laerm;70936;51.680;5.974;2024-03-02T11:39:51;57.09;43.1;81.01;;
80864;Laerm;70936;51.680;5.974;2024-03-02T11:43:50;54.33;43;69.71;;
80864;Laerm;70936;51.680;5.974;2024-03-02T11:47:50;56.17;42.88;83.11;;
80864;Laerm;70936;51.680;5.974;2024-03-02T11:51:50;54.89;42.75;72.09;;
80864;Laerm;70936;51.680;5.974;2024-03-02T11:55:50;54.61;43.25;65.22;;
80864;Laerm;70936;51.680;5.974;2024-03-02T12:07:56;54.01;38.19;64.31;;
80864;Laerm;70936;51.680;5.974;2024-03-02T12:19:55;53.45;37.05;64.98;;
80864;Laerm;70936;51.680;5.974;2024-03-02T12:23:55;54.21;37.41;70.82;;
80864;Laerm;70936;51.680;5.974;2024-03-02T12:27:56;54.97;36.92;72.43;;
80864;Laerm;70936;51.680;5.974;2024-03-02T12:31:55;54.59;37.68;69.25;;
80864;Laerm;70936;51.680;5.974;2024-03-02T12:35:56;55.89;39.08;73.64;;
80864;Laerm;70936;51.680;5.974;2024-03-02T12:39:55;54.11;39.92;67.11;;
80864;Laerm;70936;51.680;5.974;2024-03-02T12:43:55;55.74;38.64;67.29;;
80864;Laerm;70936;51.680;5.974;2024-03-02T12:47:55;54.41;39.01;66.1;;
80864;Laerm;70936;51.680;5.974;2024-03-02T12:51:55;54.01;39.88;64.55;;
80864;Laerm;70936;51.680;5.974;2024-03-02T12:55:55;55.72;37.76;67.16;;
80864;Laerm;70936;51.680;5.974;2024-03-02T12:59:58;55.21;38.7;69.39;;
80864;Laerm;70936;51.680;5.974;2024-03-02T13:03:56;55.46;38.65;68.02;;
80864;Laerm;70936;51.680;5.974;2024-03-02T13:07:55;55.47;38.3;69.89;;
80864;Laerm;70936;51.680;5.974;2024-03-02T13:11:56;56.54;39.15;68.34;;
80864;Laerm;70936;51.680;5.974;2024-03-02T13:15:56;54.87;39.36;68.54;;
80864;Laerm;70936;51.680;5.974;2024-03-02T13:19:56;53.96;38.27;67.89;;
80864;Laerm;70936;51.680;5.974;2024-03-02T13:23:56;55.44;38.35;67.59;;
80864;Laerm;70936;51.680;5.974;2024-03-02T13:27:55;54.63;38.89;66.79;;
80864;Laerm;70936;51.680;5.974;2024-03-02T13:31:55;54.52;38.58;67.46;;
80864;Laerm;70936;51.680;5.974;2024-03-02T13:35:56;56.55;39.38;77.46;;
80864;Laerm;70936;51.680;5.974;2024-03-02T13:39:55;54.58;39.08;68.92;;
80864;Laerm;70936;51.680;5.974;2024-03-02T13:43:55;55.77;39.05;73.19;;
80864;Laerm;70936;51.680;5.974;2024-03-02T13:47:55;52.69;37.58;64.22;;
80864;Laerm;70936;51.680;5.974;2024-03-02T13:51:55;57.04;38.14;85.01;;
80864;Laerm;70936;51.680;5.974;2024-03-02T13:55:55;53.46;37.89;67.12;;
80864;Laerm;70936;51.680;5.974;2024-03-02T13:59:57;54.77;38.48;70.54;;
80864;Laerm;70936;51.680;5.974;2024-03-02T14:03:55;54.9;40.69;67.05;;
80864;Laerm;70936;51.680;5.974;2024-03-02T14:07:56;52.28;39;66.35;;
80864;Laerm;70936;51.680;5.974;2024-03-02T14:11:56;53.64;40.86;66.14;;
80864;Laerm;70936;51.680;5.974;2024-03-02T14:15:56;52.77;38.28;66.43;;
80864;Laerm;70936;51.680;5.974;2024-03-02T14:19:55;53.78;38.44;67.91;;
80864;Laerm;70936;51.680;5.974;2024-03-02T14:23:55;52.07;38.04;64.71;;
80864;Laerm;70936;51.680;5.974;2024-03-02T14:27:55;53.49;40.36;64.4;;
80864;Laerm;70936;51.680;5.974;2024-03-02T14:31:55;54.99;36.96;68.4;;
80864;Laerm;70936;51.680;5.974;2024-03-02T14:35:55;52.05;37.98;71.6;;
80864;Laerm;70936;51.680;5.974;2024-03-02T14:39:55;53.06;35.88;67.98;;
80864;Laerm;70936;51.680;5.974;2024-03-02T14:43:55;53.67;38.59;66.12;;
80864;Laerm;70936;51.680;5.974;2024-03-02T14:47:55;53.8;39.29;70.09;;
80864;Laerm;70936;51.680;5.974;2024-03-02T14:51:55;55.94;38.48;75.62;;
80864;Laerm;70936;51.680;5.974;2024-03-02T14:55:55;54.3;37.08;70.52;;
80864;Laerm;70936;51.680;5.974;2024-03-02T14:59:56;51.14;37.26;64.25;;
80864;Laerm;70936;51.680;5.974;2024-03-02T15:03:56;51.59;38.04;70.69;;
80864;Laerm;70936;51.680;5.974;2024-03-02T15:07:55;53.02;38.6;68.41;;
80864;Laerm;70936;51.680;5.974;2024-03-02T15:11:56;54.33;37.53;67.64;;
80864;Laerm;70936;51.680;5.974;2024-03-02T15:15:55;51.57;39.59;64.44;;
80864;Laerm;70936;51.680;5.974;2024-03-02T15:19:56;54.19;39.62;67.57;;
80864;Laerm;70936;51.680;5.974;2024-03-02T15:23:56;53.09;39.53;65.21;;
80864;Laerm;70936;51.680;5.974;2024-03-02T15:27:56;53.4;38.38;66.05;;
80864;Laerm;70936;51.680;5.974;2024-03-02T15:35:55;53.29;38.61;68.76;;
80864;Laerm;70936;51.680;5.974;2024-03-02T15:39:55;52.59;39.8;66.83;;
80864;Laerm;70936;51.680;5.974;2024-03-02T15:43:55;55.01;37.91;74.7;;
80864;Laerm;70936;51.680;5.974;2024-03-02T15:47:55;53.03;38.99;66.21;;
80864;Laerm;70936;51.680;5.974;2024-03-02T15:51:55;54.35;38;71.54;;
80864;Laerm;70936;51.680;5.974;2024-03-02T15:55:55;52.48;37.18;64.4;;
80864;Laerm;70936;51.680;5.974;2024-03-02T15:59:55;56.3;37.9;72.42;;
80864;Laerm;70936;51.680;5.974;2024-03-02T16:03:55;53.09;36.56;65.29;;
80864;Laerm;70936;51.680;5.974;2024-03-02T16:07:55;51.26;36.82;65.17;;
80864;Laerm;70936;51.680;5.974;2024-03-02T16:11:55;56.39;38.38;73.64;;
80864;Laerm;70936;51.680;5.974;2024-03-02T16:15:56;52.42;37.88;65.95;;
80864;Laerm;70936;51.680;5.974;2024-03-02T16:19:56;52.52;36.81;66.32;;
80864;Laerm;70936;51.680;5.974;2024-03-02T16:23:56;52.88;36.67;68.59;;
80864;Laerm;70936;51.680;5.974;2024-03-02T16:27:55;54.91;36.49;68.61;;
80864;Laerm;70936;51.680;5.974;2024-03-02T16:31:55;53.75;37.77;67.39;;
80864;Laerm;70936;51.680;5.974;2024-03-02T16:35:55;52.69;37.65;66.03;;
80864;Laerm;70936;51.680;5.974;2024-03-02T16:39:55;54.33;40.47;67.85;;
80864;Laerm;70936;51.680;5.974;2024-03-02T16:43:56;54.25;37.28;65;;
80864;Laerm;70936;51.680;5.974;2024-03-02T16:47:58;54.46;37.4;68.54;;
80864;Laerm;70936;51.680;5.974;2024-03-02T16:51:55;55.36;38.76;66.04;;
80864;Laerm;70936;51.680;5.974;2024-03-02T16:55:58;53.37;37.87;70.15;;
80864;Laerm;70936;51.680;5.974;2024-03-02T16:59:55;55.34;36.97;73.29;;
80864;Laerm;70936;51.680;5.974;2024-03-02T17:03:55;55.39;38.23;70.01;;
80864;Laerm;70936;51.680;5.974;2024-03-02T17:07:55;53.51;36.73;69.37;;
80864;Laerm;70936;51.680;5.974;2024-03-02T17:11:55;55.75;37.18;71.86;;
80864;Laerm;70936;51.680;5.974;2024-03-02T17:15:55;53.88;37.83;69.22;;
80864;Laerm;70936;51.680;5.974;2024-03-02T17:19:56;54.08;38.29;70.27;;
80864;Laerm;70936;51.680;5.974;2024-03-02T17:23:56;55.08;36.1;70.93;;
80864;Laerm;70936;51.680;5.974;2024-03-02T17:28:18;55.36;37.69;72.12;;
80864;Laerm;70936;51.680;5.974;2024-03-02T17:31:56;53.63;37.34;70.22;;
80864;Laerm;70936;51.680;5.974;2024-03-02T17:35:56;53.01;37.93;65.9;;
80864;Laerm;70936;51.680;5.974;2024-03-02T17:39:55;53.67;37.72;67;;
80864;Laerm;70936;51.680;5.974;2024-03-02T17:47:55;51.74;37.2;68.03;;
80864;Laerm;70936;51.680;5.974;2024-03-02T17:51:55;50.65;36.31;68.19;;
80864;Laerm;70936;51.680;5.974;2024-03-02T17:55:55;54.25;39.38;70.49;;
80864;Laerm;70936;51.680;5.974;2024-03-02T17:59:56;52.54;38.25;70.74;;
80864;Laerm;70936;51.680;5.974;2024-03-02T18:03:58;53.45;40.04;68.65;;
80864;Laerm;70936;51.680;5.974;2024-03-02T18:07:55;51.6;39.59;67.84;;
80864;Laerm;70936;51.680;5.974;2024-03-02T18:11:55;51.46;37.85;66.91;;
80864;Laerm;70936;51.680;5.974;2024-03-02T18:15:56;50.27;37.93;67.62;;
80864;Laerm;70936;51.680;5.974;2024-03-02T18:19:55;52.46;36.65;68.11;;
80864;Laerm;70936;51.680;5.974;2024-03-02T18:23:55;51.78;37.92;68.3;;
80864;Laerm;70936;51.680;5.974;2024-03-02T18:27:56;50.83;36.68;66.88;;
80864;Laerm;70936;51.680;5.974;2024-03-02T18:35:56;49.71;36.02;69.76;;
80864;Laerm;70936;51.680;5.974;2024-03-02T18:39:55;50.37;36.14;65.03;;
80864;Laerm;70936;51.680;5.974;2024-03-02T18:43:55;49.19;36.17;62.79;;
80864;Laerm;70936;51.680;5.974;2024-03-02T18:47:55;50.45;37.18;66.3;;
80864;Laerm;70936;51.680;5.974;2024-03-02T18:51:56;52.82;37.59;73.74;;
80864;Laerm;70936;51.680;5.974;2024-03-02T18:55:55;49.53;36.89;63.23;;
80864;Laerm;70936;51.680;5.974;2024-03-02T18:59:55;51.99;37.13;69.47;;
80864;Laerm;70936;51.680;5.974;2024-03-02T19:04:10;49.49;36.77;62.87;;
80864;Laerm;70936;51.680;5.974;2024-03-02T19:08:00;53.08;36.3;65.42;;
80864;Laerm;70936;51.680;5.974;2024-03-02T19:12:00;49.57;36.59;66.65;;
80864;Laerm;70936;51.680;5.974;2024-03-02T19:16:09;50.47;36.85;68.46;;
80864;Laerm;70936;51.680;5.974;2024-03-02T19:20:06;49.12;36.99;66.72;;
80864;Laerm;70936;51.680;5.974;2024-03-02T19:24:05;48.09;36.59;62.02;;
80864;Laerm;70936;51.680;5.974;2024-03-02T19:27:56;48.39;36.73;62.43;;
80864;Laerm;70936;51.680;5.974;2024-03-02T19:31:56;52.36;37.36;68.02;;
80864;Laerm;70936;51.680;5.974;2024-03-02T19:35:55;49.55;36.95;63.22;;
80864;Laerm;70936;51.680;5.974;2024-03-02T19:39:56;49.07;35.75;73.47;;
80864;Laerm;70936;51.680;5.974;2024-03-02T19:43:56;49.64;40.18;65.39;;
80864;Laerm;70936;51.680;5.974;2024-03-02T19:47:55;50.55;40.01;69.43;;
80864;Laerm;70936;51.680;5.974;2024-03-02T19:51:56;54.81;41.3;67.47;;
80864;Laerm;70936;51.680;5.974;2024-03-02T19:55:55;49.98;41.65;65.34;;
80864;Laerm;70936;51.680;5.974;2024-03-02T19:59:56;49.09;40.26;63.33;;
80864;Laerm;70936;51.680;5.974;2024-03-02T20:03:55;50.94;41.6;64.64;;
80864;Laerm;70936;51.680;5.974;2024-03-02T20:07:55;50.88;40.91;64.3;;
80864;Laerm;70936;51.680;5.974;2024-03-02T20:11:55;50.62;39.99;66.03;;
80864;Laerm;70936;51.680;5.974;2024-03-02T20:15:55;49.54;40.66;71.09;;
80864;Laerm;70936;51.680;5.974;2024-03-02T20:19:55;51.81;40.49;67.71;;
80864;Laerm;70936;51.680;5.974;2024-03-02T20:23:55;49.09;39.61;65.84;;
80864;Laerm;70936;51.680;5.974;2024-03-02T20:27:56;49.29;40.28;61.92;;
80864;Laerm;70936;51.680;5.974;2024-03-02T20:31:55;48.9;40.02;61.8;;
80864;Laerm;70936;51.680;5.974;2024-03-02T20:35:56;46.66;39.37;62.65;;
80864;Laerm;70936;51.680;5.974;2024-03-02T20:39:56;51.22;40;66.04;;
80864;Laerm;70936;51.680;5.974;2024-03-02T20:43:56;49.94;39.45;65.05;;
80864;Laerm;70936;51.680;5.974;2024-03-02T20:47:55;50.84;39.69;67.03;;
80864;Laerm;70936;51.680;5.974;2024-03-02T20:51:55;46.95;39.27;61.1;;
80864;Laerm;70936;51.680;5.974;2024-03-02T20:55:55;47.28;39.43;66.68;;
80864;Laerm;70936;51.680;5.974;2024-03-02T20:59:55;48.09;39.61;63.81;;
80864;Laerm;70936;51.680;5.974;2024-03-02T21:03:55;50.85;40.55;65.89;;
80864;Laerm;70936;51.680;5.974;2024-03-02T21:07:55;53.16;39.56;65.44;;
80864;Laerm;70936;51.680;5.974;2024-03-02T21:11:55;50.95;41.17;66.15;;
80864;Laerm;70936;51.680;5.974;2024-03-02T21:15:55;48.19;41.94;61.34;;
80864;Laerm;70936;51.680;5.974;2024-03-02T21:19:55;47.65;40.9;64.4;;
80864;Laerm;70936;51.680;5.974;2024-03-02T21:23:55;49.73;41.65;65.08;;
80864;Laerm;70936;51.680;5.974;2024-03-02T21:27:55;49.82;40.55;65.72;;
80864;Laerm;70936;51.680;5.974;2024-03-02T21:31:55;49.82;44.94;65.35;;
80864;Laerm;70936;51.680;5.974;2024-03-02T21:35:55;50.03;40.88;63.31;;
80864;Laerm;70936;51.680;5.974;2024-03-02T21:39:55;46.56;41.37;64.12;;
80864;Laerm;70936;51.680;5.974;2024-03-02T21:43:55;48.74;39.9;65.45;;
80864;Laerm;70936;51.680;5.974;2024-03-02T21:47:55;46.69;41.78;59.93;;
80864;Laerm;70936;51.680;5.974;2024-03-02T21:51:55;46.08;40.85;69.43;;
80864;Laerm;70936;51.680;5.974;2024-03-02T21:55:55;49.45;38.29;67.54;;
80864;Laerm;70936;51.680;5.974;2024-03-02T21:59:56;46.91;38.79;57.19;;
80864;Laerm;70936;51.680;5.974;2024-03-02T22:03:55;46.14;38.15;59.21;;
80864;Laerm;70936;51.680;5.974;2024-03-02T22:07:55;50.41;41.45;65.55;;
80864;Laerm;70936;51.680;5.974;2024-03-02T22:11:55;49.75;39.9;64.81;;
80864;Laerm;70936;51.680;5.974;2024-03-02T22:15:55;46.32;39.78;61.02;;
80864;Laerm;70936;51.680;5.974;2024-03-02T22:19:55;45.25;39.73;61.41;;
80864;Laerm;70936;51.680;5.974;2024-03-02T22:23:55;47.97;38.92;65.7;;
80864;Laerm;70936;51.680;5.974;2024-03-02T22:27:55;44.52;38.92;61.42;;
80864;Laerm;70936;51.680;5.974;2024-03-02T22:31:55;47.5;39;61.38;;
80864;Laerm;70936;51.680;5.974;2024-03-02T22:35:55;48.5;38.98;67.16;;
80864;Laerm;70936;51.680;5.974;2024-03-02T22:39:55;44.88;39.02;61.48;;
80864;Laerm;70936;51.680;5.974;2024-03-02T22:43:55;50.39;38.43;66.3;;
80864;Laerm;70936;51.680;5.974;2024-03-02T22:47:58;41.94;37.91;46.76;;
80864;Laerm;70936;51.680;5.974;2024-03-02T22:51:55;46.15;38.83;62.53;;
80864;Laerm;70936;51.680;5.974;2024-03-02T22:55:55;44.27;38.45;60.61;;
80864;Laerm;70936;51.680;5.974;2024-03-02T23:03:55;44.39;38.29;59.2;;
80864;Laerm;70936;51.680;5.974;2024-03-02T23:07:55;48.09;38.22;64.47;;
80864;Laerm;70936;51.680;5.974;2024-03-02T23:11:55;40.59;33.42;47.04;;
80864;Laerm;70936;51.680;5.974;2024-03-02T23:15:55;44.8;33.48;64.06;;
80864;Laerm;70936;51.680;5.974;2024-03-02T23:19:55;47.19;33.25;66.47;;
80864;Laerm;70936;51.680;5.974;2024-03-02T23:23:55;43.36;33.33;63.93;;
80864;Laerm;70936;51.680;5.974;2024-03-02T23:27:55;37.67;32.48;53.84;;
80864;Laerm;70936;51.680;5.974;2024-03-02T23:31:55;46.93;34.34;66.65;;
80864;Laerm;70936;51.680;5.974;2024-03-02T23:35:55;46.31;33.95;65.02;;
80864;Laerm;70936;51.680;5.974;2024-03-02T23:39:55;47.79;33.99;63.52;;
80864;Laerm;70936;51.680;5.974;2024-03-02T23:43:55;49.7;35.24;66.07;;
80864;Laerm;70936;51.680;5.974;2024-03-02T23:47:55;46.56;33.73;64.46;;
80864;Laerm;70936;51.680;5.974;2024-03-02T23:51:55;44.05;34.54;63.53;;
80864;Laerm;70936;51.680;5.974;2024-03-02T23:55:56;44.8;33.17;60.63;;
80864;Laerm;70936;51.680;5.974;2024-03-02T23:59:55;41.72;34.06;59.56;;
